RYR882 GCRR-LIMF
Flight info
| Callsign | RYR882 |
|---|---|
| Flight time | N/A |
| Altitude | 38000 |
| Route | KORAL7M KORAL UG5 SONSO DCT NIRAL UN871 OSDAM UM985 BARPA DCT XAVIR M985 PIMOS DCT RIXUR DCT UNTOS DCT ROLAS DCT TOSGA DCT RESTU DCT ALT DCT SUMMO DCT MITOS DCT BRUNO DCT RUXET DCT IZA DCT TUKRO DCT ASMOT DCT PTC DCT MHN DCT ISTER DCT NIVDA DCT OMEDA DCT RAPUR DCT TORTU DCT ERTEV DCT ANAKI/N0393F180 L50 LAGEN LAGEN3R |
| Aircraft | B38M/M-SL/L |
Departure
| Time | 2026-04-29 12:53 |
|---|---|
| Airport | César Manrique-Lanzarote Airport (GCRR) |
Arrival
| Time | N/A |
|---|---|
| Airport | Turin Airport (LIMF) |
| Time | Latitude | Longitude | Altitude | Speed | Heading |
|---|---|---|---|---|---|
| 2026-04-29 12:24 | 28.95151 | -13.60620 | 51 ft | 0 kts | 297° |
| 2026-04-29 12:39 | 28.95141 | -13.60596 | 46 ft | 4 kts | 289° |
| 2026-04-29 12:40 | 28.95135 | -13.60566 | 48 ft | 4 kts | 272° |
| 2026-04-29 12:40 | 28.95139 | -13.60538 | 50 ft | 4 kts | 228° |
| 2026-04-29 12:40 | 28.95145 | -13.60531 | 49 ft | 3 kts | 210° |
| 2026-04-29 12:44 | 28.95145 | -13.60532 | 49 ft | 0 kts | 210° |
| 2026-04-29 12:44 | 28.95141 | -13.60534 | 48 ft | 0 kts | 210° |
| 2026-04-29 12:45 | 28.95131 | -13.60540 | 50 ft | 3 kts | 210° |
| 2026-04-29 12:45 | 28.95104 | -13.60560 | 51 ft | 6 kts | 215° |
| 2026-04-29 12:45 | 28.95079 | -13.60584 | 51 ft | 8 kts | 221° |
| 2026-04-29 12:45 | 28.95028 | -13.60628 | 51 ft | 11 kts | 207° |
| 2026-04-29 12:46 | 28.94956 | -13.60666 | 51 ft | 10 kts | 205° |
| 2026-04-29 12:46 | 28.94898 | -13.60644 | 50 ft | 10 kts | 123° |
| 2026-04-29 12:46 | 28.94859 | -13.60570 | 51 ft | 9 kts | 142° |
| 2026-04-29 12:46 | 28.94826 | -13.60571 | 51 ft | 4 kts | 206° |
| 2026-04-29 12:47 | 28.94791 | -13.60590 | 51 ft | 7 kts | 206° |
| 2026-04-29 12:47 | 28.94738 | -13.60619 | 51 ft | 10 kts | 206° |
| 2026-04-29 12:47 | 28.94669 | -13.60658 | 50 ft | 13 kts | 206° |
| 2026-04-29 12:47 | 28.94566 | -13.60718 | 42 ft | 20 kts | 207° |
| 2026-04-29 12:48 | 28.94420 | -13.60801 | 33 ft | 26 kts | 207° |
| 2026-04-29 12:48 | 28.94249 | -13.60899 | 29 ft | 29 kts | 206° |
| 2026-04-29 12:48 | 28.94068 | -13.61006 | 27 ft | 30 kts | 208° |
| 2026-04-29 12:48 | 28.93876 | -13.61117 | 26 ft | 32 kts | 206° |
| 2026-04-29 12:49 | 28.93706 | -13.61216 | 26 ft | 16 kts | 204° |
| 2026-04-29 12:49 | 28.93641 | -13.61183 | 28 ft | 10 kts | 120° |
| 2026-04-29 12:49 | 28.93633 | -13.61166 | 25 ft | 0 kts | 116° |
| 2026-04-29 12:50 | 28.93632 | -13.61164 | 25 ft | 1 kts | 116° |
| 2026-04-29 12:51 | 28.93627 | -13.61152 | 27 ft | 2 kts | 116° |
| 2026-04-29 12:51 | 28.93618 | -13.61132 | 26 ft | 4 kts | 116° |
| 2026-04-29 12:51 | 28.93612 | -13.61086 | 27 ft | 9 kts | 85° |
| 2026-04-29 12:51 | 28.93676 | -13.61024 | 27 ft | 25 kts | 25° |
| 2026-04-29 12:52 | 28.94020 | -13.60826 | 28 ft | 83 kts | 27° |
| 2026-04-29 12:52 | 28.94671 | -13.60451 | 38 ft | 124 kts | 26° |
| 2026-04-29 12:52 | 28.95535 | -13.59937 | 53 ft | 154 kts | 29° |
| 2026-04-29 12:52 | 28.96511 | -13.59377 | 263 ft | 162 kts | 26° |
| 2026-04-29 12:53 | 28.97538 | -13.58766 | 651 ft | 171 kts | 29° |
| 2026-04-29 12:53 | 28.98582 | -13.58010 | 948 ft | 180 kts | 43° |
| 2026-04-29 12:53 | 28.99469 | -13.56970 | 1268 ft | 185 kts | 45° |
| 2026-04-29 12:53 | 29.00360 | -13.55924 | 1559 ft | 193 kts | 44° |
| 2026-04-29 12:54 | 29.01367 | -13.54808 | 1618 ft | 210 kts | 42° |
| 2026-04-29 12:54 | 29.02487 | -13.53663 | 1735 ft | 222 kts | 39° |
| 2026-04-29 12:54 | 29.03700 | -13.52512 | 1888 ft | 231 kts | 37° |
| 2026-04-29 12:54 | 29.05004 | -13.51367 | 2515 ft | 241 kts | 36° |
| 2026-04-29 12:55 | 29.06096 | -13.49886 | 3104 ft | 254 kts | 65° |
| 2026-04-29 12:55 | 29.06765 | -13.47971 | 3756 ft | 263 kts | 68° |
| 2026-04-29 12:55 | 29.07533 | -13.46044 | 4492 ft | 269 kts | 59° |
| 2026-04-29 12:55 | 29.08612 | -13.44270 | 5237 ft | 274 kts | 49° |
| 2026-04-29 12:56 | 29.10035 | -13.42818 | 5967 ft | 277 kts | 27° |
| 2026-04-29 12:56 | 29.11799 | -13.41879 | 6685 ft | 283 kts | 22° |
| 2026-04-29 12:56 | 29.13624 | -13.40981 | 7385 ft | 287 kts | 24° |
| 2026-04-29 12:56 | 29.15447 | -13.40007 | 8125 ft | 292 kts | 25° |
| 2026-04-29 12:57 | 29.17287 | -13.38986 | 8898 ft | 296 kts | 25° |
| 2026-04-29 12:57 | 29.19163 | -13.37964 | 9627 ft | 301 kts | 24° |
| 2026-04-29 12:57 | 29.21077 | -13.36937 | 9990 ft | 304 kts | 24° |
| 2026-04-29 12:57 | 29.22998 | -13.35903 | 10005 ft | 303 kts | 24° |
| 2026-04-29 12:58 | 29.24904 | -13.34869 | 10004 ft | 303 kts | 24° |
| 2026-04-29 12:58 | 29.26777 | -13.33769 | 10006 ft | 303 kts | 35° |
| 2026-04-29 12:58 | 29.28232 | -13.32040 | 10017 ft | 305 kts | 53° |
| 2026-04-29 12:58 | 29.29465 | -13.30054 | 10044 ft | 311 kts | 56° |
| 2026-04-29 12:59 | 29.30724 | -13.27899 | 10025 ft | 339 kts | 56° |
| 2026-04-29 12:59 | 29.32089 | -13.25637 | 10131 ft | 347 kts | 54° |
| 2026-04-29 12:59 | 29.33488 | -13.23380 | 10732 ft | 349 kts | 54° |
| 2026-04-29 12:59 | 29.34892 | -13.21094 | 11439 ft | 353 kts | 55° |
| 2026-04-29 13:00 | 29.36301 | -13.18770 | 12111 ft | 357 kts | 55° |
| 2026-04-29 13:00 | 29.37728 | -13.16417 | 12769 ft | 362 kts | 54° |
| 2026-04-29 13:00 | 29.39162 | -13.14067 | 13419 ft | 366 kts | 54° |
| 2026-04-29 13:00 | 29.40632 | -13.11655 | 14028 ft | 371 kts | 54° |
| 2026-04-29 13:01 | 29.42116 | -13.09213 | 14612 ft | 375 kts | 54° |
| 2026-04-29 13:01 | 29.43613 | -13.06747 | 15194 ft | 379 kts | 54° |
| 2026-04-29 13:01 | 29.45132 | -13.04247 | 15767 ft | 384 kts | 54° |
| 2026-04-29 13:01 | 29.46663 | -13.01724 | 16335 ft | 388 kts | 54° |
| 2026-04-29 13:02 | 29.48215 | -12.99167 | 16914 ft | 392 kts | 54° |
| 2026-04-29 13:02 | 29.49781 | -12.96582 | 17468 ft | 396 kts | 54° |
| 2026-04-29 13:02 | 29.51363 | -12.93969 | 18028 ft | 400 kts | 54° |
| 2026-04-29 13:02 | 29.52959 | -12.91332 | 18541 ft | 404 kts | 54° |
| 2026-04-29 13:03 | 29.54572 | -12.88666 | 19029 ft | 408 kts | 54° |
| 2026-04-29 13:03 | 29.56196 | -12.85978 | 19514 ft | 411 kts | 54° |
| 2026-04-29 13:03 | 29.57832 | -12.83269 | 20020 ft | 415 kts | 55° |
| 2026-04-29 13:03 | 29.59482 | -12.80536 | 20512 ft | 418 kts | 55° |
| 2026-04-29 13:04 | 29.61142 | -12.77785 | 21001 ft | 421 kts | 55° |
| 2026-04-29 13:04 | 29.62813 | -12.75012 | 21468 ft | 424 kts | 55° |
| 2026-04-29 13:04 | 29.64471 | -12.72260 | 21919 ft | 427 kts | 55° |
| 2026-04-29 13:04 | 29.66169 | -12.69439 | 22407 ft | 429 kts | 55° |
| 2026-04-29 13:05 | 29.67897 | -12.66567 | 22882 ft | 432 kts | 55° |
| 2026-04-29 13:05 | 29.69614 | -12.63711 | 23348 ft | 435 kts | 55° |
| 2026-04-29 13:05 | 29.71339 | -12.60839 | 23764 ft | 438 kts | 55° |
| 2026-04-29 13:05 | 29.73054 | -12.57982 | 24137 ft | 441 kts | 55° |
| 2026-04-29 13:06 | 29.74796 | -12.55065 | 24511 ft | 444 kts | 56° |
| 2026-04-29 13:06 | 29.76532 | -12.52120 | 24881 ft | 446 kts | 56° |
| 2026-04-29 13:06 | 29.78279 | -12.49152 | 25250 ft | 449 kts | 55° |
| 2026-04-29 13:06 | 29.80046 | -12.46170 | 25616 ft | 452 kts | 55° |
| 2026-04-29 13:07 | 29.81821 | -12.43176 | 25991 ft | 455 kts | 55° |
| 2026-04-29 13:07 | 29.83606 | -12.40153 | 26347 ft | 457 kts | 55° |
| 2026-04-29 13:07 | 29.85395 | -12.37116 | 26705 ft | 459 kts | 55° |
| 2026-04-29 13:07 | 29.87194 | -12.34064 | 27062 ft | 462 kts | 55° |
| 2026-04-29 13:08 | 29.89008 | -12.30988 | 27405 ft | 464 kts | 55° |
| 2026-04-29 13:08 | 29.90827 | -12.27900 | 27742 ft | 467 kts | 55° |
| 2026-04-29 13:08 | 29.92656 | -12.24790 | 28086 ft | 470 kts | 55° |
| 2026-04-29 13:08 | 29.94491 | -12.21668 | 28419 ft | 472 kts | 54° |
| 2026-04-29 13:09 | 29.96339 | -12.18523 | 28759 ft | 475 kts | 54° |
| 2026-04-29 13:09 | 29.98195 | -12.15361 | 29093 ft | 477 kts | 54° |
| 2026-04-29 13:09 | 30.00060 | -12.12182 | 29418 ft | 479 kts | 54° |
| 2026-04-29 13:09 | 30.02136 | -12.09180 | 29762 ft | 479 kts | 43° |
| 2026-04-29 13:10 | 30.04519 | -12.06486 | 30060 ft | 481 kts | 42° |
| 2026-04-29 13:10 | 30.06939 | -12.03809 | 30319 ft | 483 kts | 41° |
| 2026-04-29 13:10 | 30.09367 | -12.01114 | 30579 ft | 486 kts | 42° |
| 2026-04-29 13:10 | 30.11796 | -11.98382 | 30837 ft | 488 kts | 42° |
| 2026-04-29 13:11 | 30.14231 | -11.95640 | 31088 ft | 490 kts | 41° |
| 2026-04-29 13:11 | 30.16689 | -11.92889 | 31337 ft | 493 kts | 41° |
| 2026-04-29 13:11 | 30.19128 | -11.90163 | 31610 ft | 494 kts | 41° |
| 2026-04-29 13:11 | 30.21597 | -11.87390 | 31965 ft | 494 kts | 41° |
| 2026-04-29 13:12 | 30.24056 | -11.84622 | 32305 ft | 494 kts | 41° |
| 2026-04-29 13:12 | 30.26520 | -11.81851 | 32641 ft | 494 kts | 41° |
| 2026-04-29 13:12 | 30.28984 | -11.79083 | 32964 ft | 494 kts | 41° |
| 2026-04-29 13:12 | 30.31451 | -11.76307 | 33290 ft | 494 kts | 41° |
| 2026-04-29 13:13 | 30.33914 | -11.73530 | 33609 ft | 494 kts | 41° |
| 2026-04-29 13:13 | 30.36375 | -11.70754 | 33927 ft | 494 kts | 41° |
| 2026-04-29 13:13 | 30.38841 | -11.67973 | 34209 ft | 495 kts | 41° |
| 2026-04-29 13:13 | 30.41303 | -11.65193 | 34481 ft | 495 kts | 41° |
| 2026-04-29 13:14 | 30.43769 | -11.62406 | 34763 ft | 495 kts | 41° |
| 2026-04-29 13:14 | 30.46229 | -11.59624 | 35054 ft | 495 kts | 41° |
| 2026-04-29 13:14 | 30.48696 | -11.56831 | 35331 ft | 495 kts | 41° |
| 2026-04-29 13:14 | 30.51158 | -11.54044 | 35599 ft | 495 kts | 41° |
| 2026-04-29 13:15 | 30.53621 | -11.51253 | 35859 ft | 495 kts | 41° |
| 2026-04-29 13:15 | 30.56083 | -11.48459 | 36088 ft | 496 kts | 41° |
| 2026-04-29 13:15 | 30.58549 | -11.45661 | 36319 ft | 496 kts | 41° |
| 2026-04-29 13:15 | 30.61016 | -11.42858 | 36553 ft | 497 kts | 41° |
| 2026-04-29 13:16 | 30.63487 | -11.40049 | 36777 ft | 497 kts | 41° |
| 2026-04-29 13:16 | 30.65962 | -11.37234 | 36999 ft | 498 kts | 41° |
| 2026-04-29 13:16 | 30.68435 | -11.34417 | 37223 ft | 499 kts | 41° |
| 2026-04-29 13:16 | 30.70916 | -11.31591 | 37442 ft | 499 kts | 41° |
| 2026-04-29 13:17 | 30.73396 | -11.28763 | 37658 ft | 500 kts | 41° |
| 2026-04-29 13:17 | 30.75878 | -11.25931 | 37900 ft | 500 kts | 41° |
| 2026-04-29 13:17 | 30.78354 | -11.23102 | 37972 ft | 496 kts | 41° |
| 2026-04-29 13:17 | 30.80782 | -11.20325 | 37979 ft | 484 kts | 41° |
| 2026-04-29 13:18 | 30.83157 | -11.17607 | 37981 ft | 476 kts | 41° |
| 2026-04-29 13:18 | 30.87916 | -11.12167 | 37977 ft | 481 kts | 41° |
| 2026-04-29 13:19 | 30.92663 | -11.06718 | 37982 ft | 485 kts | 41° |
| 2026-04-29 13:19 | 30.97478 | -11.01192 | 37981 ft | 486 kts | 41° |
| 2026-04-29 13:20 | 31.02292 | -10.95653 | 37985 ft | 486 kts | 41° |
| 2026-04-29 13:20 | 31.07104 | -10.90112 | 37987 ft | 486 kts | 41° |
| 2026-04-29 13:21 | 31.11872 | -10.84610 | 37980 ft | 482 kts | 41° |
| 2026-04-29 13:21 | 31.16645 | -10.79098 | 37985 ft | 483 kts | 41° |
| 2026-04-29 13:22 | 31.21419 | -10.73573 | 37978 ft | 483 kts | 41° |
| 2026-04-29 13:22 | 31.26194 | -10.68040 | 37975 ft | 483 kts | 42° |
| 2026-04-29 13:23 | 31.30936 | -10.62537 | 37986 ft | 484 kts | 42° |
| 2026-04-29 13:23 | 31.35705 | -10.56994 | 37964 ft | 483 kts | 42° |
| 2026-04-29 13:24 | 31.40472 | -10.51445 | 37970 ft | 481 kts | 42° |
| 2026-04-29 13:24 | 31.45220 | -10.45911 | 37968 ft | 481 kts | 42° |
| 2026-04-29 13:25 | 31.49961 | -10.40375 | 37971 ft | 481 kts | 42° |
| 2026-04-29 13:25 | 31.57067 | -10.32063 | 37971 ft | 481 kts | 42° |
| 2026-04-29 13:26 | 31.61773 | -10.26547 | 37965 ft | 481 kts | 42° |
| 2026-04-29 13:26 | 31.66505 | -10.20993 | 37985 ft | 481 kts | 42° |
| 2026-04-29 13:27 | 31.71234 | -10.15434 | 37975 ft | 481 kts | 43° |
| 2026-04-29 13:27 | 31.75969 | -10.09860 | 37977 ft | 482 kts | 43° |
| 2026-04-29 13:28 | 31.80706 | -10.04274 | 37976 ft | 483 kts | 43° |
| 2026-04-29 13:28 | 31.85444 | -9.98679 | 37979 ft | 483 kts | 43° |
| 2026-04-29 13:29 | 31.90187 | -9.93068 | 37973 ft | 483 kts | 43° |
| 2026-04-29 13:29 | 31.94923 | -9.87457 | 37975 ft | 482 kts | 43° |
| 2026-04-29 13:30 | 31.99650 | -9.81849 | 37970 ft | 482 kts | 43° |
| 2026-04-29 13:30 | 32.04383 | -9.76225 | 37975 ft | 484 kts | 43° |
| 2026-04-29 13:31 | 32.09094 | -9.70617 | 37978 ft | 484 kts | 43° |
| 2026-04-29 13:31 | 32.13830 | -9.64973 | 37972 ft | 483 kts | 43° |
| 2026-04-29 13:32 | 32.18556 | -9.59329 | 37968 ft | 483 kts | 43° |
| 2026-04-29 13:32 | 32.23277 | -9.53684 | 37973 ft | 483 kts | 43° |
| 2026-04-29 13:33 | 32.27989 | -9.48041 | 37962 ft | 483 kts | 43° |
| 2026-04-29 13:33 | 32.32707 | -9.42382 | 37972 ft | 485 kts | 44° |
| 2026-04-29 13:34 | 32.37445 | -9.36689 | 37967 ft | 485 kts | 44° |
| 2026-04-29 13:34 | 32.41376 | -9.31959 | 37963 ft | 485 kts | 44° |
| 2026-04-29 13:35 | 32.46102 | -9.26264 | 37969 ft | 484 kts | 44° |
| 2026-04-29 13:35 | 32.50821 | -9.20569 | 37963 ft | 484 kts | 44° |
| 2026-04-29 13:36 | 32.55540 | -9.14866 | 37965 ft | 485 kts | 44° |
| 2026-04-29 13:36 | 32.60267 | -9.09142 | 37963 ft | 485 kts | 44° |
| 2026-04-29 13:37 | 32.65001 | -9.03401 | 37960 ft | 488 kts | 44° |
| 2026-04-29 13:37 | 32.69717 | -8.97673 | 37964 ft | 488 kts | 44° |
| 2026-04-29 13:38 | 32.74459 | -8.91904 | 37964 ft | 488 kts | 44° |
| 2026-04-29 13:38 | 32.79195 | -8.86133 | 37964 ft | 487 kts | 44° |
| 2026-04-29 13:39 | 32.83921 | -8.80365 | 37960 ft | 487 kts | 44° |
| 2026-04-29 13:39 | 32.88654 | -8.74579 | 37962 ft | 488 kts | 44° |
| 2026-04-29 13:40 | 32.93386 | -8.68784 | 37955 ft | 489 kts | 44° |
| 2026-04-29 13:40 | 32.98138 | -8.62956 | 37959 ft | 490 kts | 44° |
| 2026-04-29 13:41 | 33.02890 | -8.57118 | 37954 ft | 490 kts | 44° |
| 2026-04-29 13:41 | 33.07625 | -8.51291 | 37954 ft | 490 kts | 44° |
| 2026-04-29 13:42 | 33.12364 | -8.45449 | 37959 ft | 490 kts | 44° |
| 2026-04-29 13:42 | 33.17100 | -8.39602 | 37958 ft | 490 kts | 44° |
| 2026-04-29 13:43 | 33.22324 | -8.34500 | 37972 ft | 485 kts | 29° |
| 2026-04-29 13:43 | 33.28059 | -8.30225 | 37968 ft | 487 kts | 29° |
| 2026-04-29 13:44 | 33.33792 | -8.25888 | 37968 ft | 488 kts | 30° |
| 2026-04-29 13:44 | 33.39538 | -8.21558 | 37957 ft | 487 kts | 30° |
| 2026-04-29 13:45 | 33.45274 | -8.17223 | 37958 ft | 487 kts | 29° |
| 2026-04-29 13:45 | 33.50995 | -8.12890 | 37957 ft | 486 kts | 29° |
| 2026-04-29 13:46 | 33.56675 | -8.08586 | 37962 ft | 486 kts | 29° |
| 2026-04-29 13:46 | 33.62396 | -8.04241 | 37961 ft | 487 kts | 29° |
| 2026-04-29 13:47 | 33.68123 | -7.99886 | 37957 ft | 487 kts | 29° |
| 2026-04-29 13:47 | 33.73853 | -7.95520 | 37955 ft | 487 kts | 29° |
| 2026-04-29 13:48 | 33.79567 | -7.91160 | 37957 ft | 486 kts | 29° |
| 2026-04-29 13:48 | 33.85273 | -7.86800 | 37956 ft | 486 kts | 29° |
| 2026-04-29 13:49 | 33.90983 | -7.82429 | 37958 ft | 487 kts | 29° |
| 2026-04-29 13:49 | 33.96697 | -7.78048 | 37960 ft | 487 kts | 29° |
| 2026-04-29 13:50 | 34.02410 | -7.73660 | 37959 ft | 485 kts | 29° |
| 2026-04-29 13:50 | 34.08101 | -7.69284 | 37953 ft | 485 kts | 29° |
| 2026-04-29 13:51 | 34.13794 | -7.64897 | 37951 ft | 485 kts | 29° |
| 2026-04-29 13:51 | 34.19444 | -7.60537 | 37954 ft | 485 kts | 29° |
| 2026-04-29 13:52 | 34.25152 | -7.56127 | 37974 ft | 489 kts | 29° |
| 2026-04-29 13:52 | 34.30863 | -7.51702 | 37950 ft | 486 kts | 29° |
| 2026-04-29 13:53 | 34.36566 | -7.47283 | 37947 ft | 487 kts | 29° |
| 2026-04-29 13:53 | 34.42267 | -7.42853 | 37948 ft | 487 kts | 29° |
| 2026-04-29 13:54 | 34.47972 | -7.38415 | 37950 ft | 487 kts | 29° |
| 2026-04-29 13:54 | 34.53673 | -7.33972 | 37953 ft | 488 kts | 29° |
| 2026-04-29 13:55 | 34.59377 | -7.29520 | 37957 ft | 487 kts | 29° |
| 2026-04-29 13:55 | 34.65071 | -7.25068 | 37953 ft | 486 kts | 29° |
| 2026-04-29 13:56 | 34.70759 | -7.20613 | 37944 ft | 487 kts | 29° |
| 2026-04-29 13:56 | 34.76470 | -7.16134 | 37952 ft | 489 kts | 29° |
| 2026-04-29 13:57 | 34.82194 | -7.11635 | 37940 ft | 490 kts | 28° |
| 2026-04-29 13:57 | 34.87878 | -7.07162 | 37953 ft | 490 kts | 29° |
| 2026-04-29 13:58 | 34.93599 | -7.02650 | 37952 ft | 489 kts | 29° |
| 2026-04-29 13:58 | 34.99318 | -6.98135 | 37952 ft | 489 kts | 29° |
| 2026-04-29 13:59 | 35.05031 | -6.93614 | 37979 ft | 489 kts | 29° |
| 2026-04-29 13:59 | 35.10751 | -6.89082 | 37948 ft | 490 kts | 29° |
| 2026-04-29 14:00 | 35.16480 | -6.84535 | 37952 ft | 491 kts | 29° |
| 2026-04-29 14:00 | 35.22169 | -6.80011 | 37941 ft | 491 kts | 29° |
| 2026-04-29 14:01 | 35.27896 | -6.75449 | 37939 ft | 491 kts | 29° |
| 2026-04-29 14:01 | 35.33473 | -6.70625 | 37963 ft | 495 kts | 41° |
| 2026-04-29 14:02 | 35.35763 | -6.67447 | 37960 ft | 500 kts | 53° |
| 2026-04-29 14:02 | 35.37604 | -6.63831 | 37950 ft | 501 kts | 58° |
| 2026-04-29 14:02 | 35.41103 | -6.56434 | 37949 ft | 502 kts | 58° |
| 2026-04-29 14:03 | 35.44639 | -6.49044 | 37943 ft | 502 kts | 56° |
| 2026-04-29 14:03 | 35.48333 | -6.41775 | 37934 ft | 503 kts | 57° |
| 2026-04-29 14:04 | 35.52013 | -6.34473 | 37936 ft | 503 kts | 56° |
| 2026-04-29 14:04 | 35.55687 | -6.27238 | 37939 ft | 502 kts | 57° |
| 2026-04-29 14:05 | 35.59354 | -6.19942 | 37934 ft | 502 kts | 56° |
| 2026-04-29 14:05 | 35.63036 | -6.12646 | 37940 ft | 502 kts | 57° |
| 2026-04-29 14:06 | 35.66697 | -6.05344 | 37932 ft | 502 kts | 56° |
| 2026-04-29 14:06 | 35.70371 | -5.98022 | 37935 ft | 504 kts | 56° |
| 2026-04-29 14:07 | 35.73955 | -5.90600 | 37987 ft | 504 kts | 62° |
| 2026-04-29 14:07 | 35.77002 | -5.82810 | 37972 ft | 505 kts | 63° |
| 2026-04-29 14:08 | 35.80054 | -5.75043 | 37961 ft | 503 kts | 63° |
| 2026-04-29 14:08 | 35.83082 | -5.67322 | 37943 ft | 504 kts | 63° |
| 2026-04-29 14:09 | 35.86194 | -5.59574 | 37951 ft | 505 kts | 61° |
| 2026-04-29 14:09 | 35.89352 | -5.51845 | 37960 ft | 504 kts | 63° |
| 2026-04-29 14:10 | 35.92462 | -5.44076 | 37963 ft | 504 kts | 62° |
| 2026-04-29 14:10 | 35.95593 | -5.36346 | 37965 ft | 504 kts | 62° |
| 2026-04-29 14:11 | 35.98697 | -5.28588 | 37958 ft | 504 kts | 62° |
| 2026-04-29 14:11 | 36.01889 | -5.20896 | 37954 ft | 503 kts | 61° |
| 2026-04-29 14:12 | 36.05067 | -5.13184 | 37930 ft | 504 kts | 61° |
| 2026-04-29 14:12 | 36.08292 | -5.05544 | 37942 ft | 505 kts | 61° |
| 2026-04-29 14:13 | 36.11497 | -4.97841 | 37933 ft | 503 kts | 62° |
| 2026-04-29 14:13 | 36.14782 | -4.90207 | 37957 ft | 502 kts | 52° |
| 2026-04-29 14:14 | 36.19369 | -4.83751 | 37944 ft | 499 kts | 42° |
| 2026-04-29 14:14 | 36.24186 | -4.77572 | 37947 ft | 499 kts | 43° |
| 2026-04-29 14:15 | 36.28981 | -4.71353 | 37942 ft | 499 kts | 43° |
| 2026-04-29 14:15 | 36.33779 | -4.65154 | 37941 ft | 498 kts | 43° |
| 2026-04-29 14:16 | 36.38570 | -4.58932 | 37940 ft | 499 kts | 43° |
| 2026-04-29 14:16 | 36.43363 | -4.52706 | 37936 ft | 497 kts | 43° |
| 2026-04-29 14:17 | 36.48120 | -4.46509 | 37932 ft | 495 kts | 43° |
| 2026-04-29 14:17 | 36.52876 | -4.40306 | 37935 ft | 496 kts | 43° |
| 2026-04-29 14:18 | 36.57643 | -4.34074 | 37942 ft | 497 kts | 43° |
| 2026-04-29 14:18 | 36.62408 | -4.27834 | 37944 ft | 497 kts | 43° |
| 2026-04-29 14:19 | 36.67138 | -4.21627 | 37942 ft | 496 kts | 43° |
| 2026-04-29 14:19 | 36.71889 | -4.15381 | 37940 ft | 496 kts | 43° |
| 2026-04-29 14:20 | 36.76630 | -4.09136 | 37939 ft | 495 kts | 43° |
| 2026-04-29 14:20 | 36.81358 | -4.02897 | 37935 ft | 495 kts | 43° |
| 2026-04-29 14:21 | 36.86088 | -3.96642 | 37931 ft | 495 kts | 43° |
| 2026-04-29 14:21 | 36.90807 | -3.90391 | 37926 ft | 495 kts | 43° |
| 2026-04-29 14:22 | 36.95507 | -3.84152 | 37937 ft | 496 kts | 43° |
| 2026-04-29 14:22 | 37.00225 | -3.77877 | 37936 ft | 495 kts | 43° |
| 2026-04-29 14:23 | 37.04934 | -3.71602 | 37939 ft | 495 kts | 43° |